Hlavní strana
METAR-TAF:

METAR-TAF

Letiště :

Alice Springs, Austrálie

zeměpisná šířka: 23-48S, zeměpisná délka: 133-53E, výška: 545 m

Aktuální stav počasí

Zpráva byla vytvořena před 22 minutami, v 00:00 UTC
Východoseverovýchodní vítr 9 kt
Teplota 33°C
Vlhkost vzduchu 24%
Tlak 1012 hPa
Viditelnost 10 km a více
Žádná oblačnost pod 1500 m, nevyskytují se cumulonimby.

METAR: YBAS 180000Z 06009KT CAVOK 33/10 Q1012 W, SW

Čas: 09:52 (00:22 UTC)

Předpověď počasí

Zpráva byla vytvořena před 1 hodinou a 2 minutami, v 23:20 UTC
Předpověď platná od 18 v 00 UTC do 18 v 24 UTC
Severovýchodní vítr 10 kt
Viditelnost 10 km a více
Žádná oblačnost pod 1500 m, nevyskytují se cumulonimby.

TAF: YBAS 172320Z 1800/1824 04010KT CAVOK

Stav a předpovědi počasí z více než 4 000 letišť (zprávy METAR a TAF).

Červené a žluté tečky na mapě představují dostupné meteorologické stanice.

Když kurzor umístíte na tečku, zobrazí se název stanice.

Pak kliknutím zobrazíte stav a předpověď počasí.

Chcete-li změnit mapu, kliknutím na zelené tlačítko se znaménkem +mapu přiblížíte, kliknutím na zelené tlačítko se znaménkem – mapu oddálíte a kliknutím na zelené šipky přejdete na sousední mapy.


METAR-TAF: